createdAt,value
2023-05-12T00:01:39.123Z,100.00
2023-05-12T00:04:07.508Z,100.00
2023-05-12T00:06:35.660Z,100.00
2023-05-12T00:09:06.221Z,100.00
2023-05-12T00:11:34.233Z,100.00
2023-05-12T00:14:02.250Z,100.00
2023-05-12T00:16:30.230Z,100.00
2023-05-12T00:18:58.201Z,100.00
2023-05-12T00:21:26.130Z,100.00
2023-05-12T00:23:53.969Z,100.00
2023-05-12T00:26:23.224Z,100.00
2023-05-12T00:28:51.871Z,100.00
2023-05-12T00:31:19.818Z,100.00
2023-05-12T00:33:47.848Z,100.00
2023-05-12T00:36:15.729Z,100.00
2023-05-12T00:38:43.658Z,100.00
2023-05-12T00:41:11.636Z,100.00
2023-05-12T00:43:40.866Z,100.00
2023-05-12T00:46:09.273Z,100.00
2023-05-12T00:48:37.374Z,100.00
2023-05-12T00:51:06.221Z,100.00
2023-05-12T00:53:47.775Z,100.00
2023-05-12T00:56:17.883Z,100.00
2023-05-12T00:58:47.437Z,100.00
2023-05-12T01:01:16.731Z,100.00
2023-05-12T01:03:46.196Z,100.00
2023-05-12T01:06:17.792Z,100.00
2023-05-12T01:08:47.031Z,100.00
2023-05-12T01:11:14.970Z,100.00
2023-05-12T01:13:42.819Z,100.00
2023-05-12T01:16:14.550Z,100.00
2023-05-12T01:18:49.466Z,100.00
2023-05-12T01:21:18.163Z,100.00
2023-05-12T01:23:51.255Z,100.00
2023-05-12T01:26:20.671Z,100.00
2023-05-12T01:28:49.434Z,100.00
2023-05-12T01:31:19.628Z,100.00
2023-05-12T01:33:49.268Z,100.00
2023-05-12T01:36:17.369Z,100.00
2023-05-12T01:38:45.958Z,100.00
2023-05-12T01:41:13.820Z,100.00
2023-05-12T01:43:43.214Z,100.00
2023-05-12T01:46:11.907Z,100.00
2023-05-12T01:48:41.471Z,100.00
2023-05-12T01:51:10.260Z,100.00
2023-05-12T01:53:38.348Z,100.00
2023-05-12T01:56:06.816Z,100.00
2023-05-12T01:58:36.046Z,100.00
2023-05-12T02:01:05.940Z,100.00
2023-05-12T02:03:34.741Z,100.00
2023-05-12T02:06:02.814Z,100.00
2023-05-12T02:08:30.875Z,100.00
2023-05-12T02:11:06.138Z,100.00
2023-05-12T02:13:34.323Z,100.00
2023-05-12T02:16:02.967Z,100.00
2023-05-12T02:18:32.395Z,100.00
2023-05-12T02:21:00.557Z,100.00
2023-05-12T02:23:30.361Z,100.00
2023-05-12T02:25:58.348Z,100.00
2023-05-12T02:28:26.286Z,100.00
2023-05-12T02:30:54.463Z,100.00
2023-05-12T02:33:23.123Z,100.00
2023-05-12T02:35:52.631Z,100.00
2023-05-12T02:38:20.666Z,100.00
2023-05-12T02:40:49.020Z,100.00
2023-05-12T02:43:17.057Z,100.00
2023-05-12T02:45:45.018Z,100.00
2023-05-12T02:48:13.026Z,100.00
2023-05-12T02:50:40.936Z,100.00
2023-05-12T02:53:10.335Z,100.00
2023-05-12T02:55:38.303Z,100.00
2023-05-12T02:58:06.184Z,100.00
2023-05-12T03:00:34.269Z,100.00
2023-05-12T03:03:03.013Z,100.00
2023-05-12T03:05:34.502Z,100.00
2023-05-12T03:08:02.774Z,100.00
2023-05-12T03:10:32.315Z,100.00
2023-05-12T03:13:00.339Z,100.00
2023-05-12T03:15:29.467Z,100.00
2023-05-12T03:17:57.857Z,100.00
2023-05-12T03:20:25.763Z,100.00
2023-05-12T03:22:53.742Z,100.00
2023-05-12T03:25:21.943Z,100.00
2023-05-12T03:27:51.314Z,100.00
2023-05-12T03:30:19.385Z,100.00
2023-05-12T03:32:47.623Z,100.00
2023-05-12T03:35:15.961Z,100.00
2023-05-12T03:37:43.823Z,100.00
2023-05-12T03:40:12.652Z,100.00
2023-05-12T03:42:40.544Z,100.00
2023-05-12T03:45:11.812Z,100.00
2023-05-12T03:47:40.851Z,100.00
2023-05-12T03:50:10.129Z,100.00
2023-05-12T03:52:41.486Z,100.00
2023-05-12T03:55:10.422Z,100.00
2023-05-12T03:57:38.566Z,100.00
2023-05-12T04:00:07.980Z,100.00
2023-05-12T04:02:46.375Z,100.00
2023-05-12T04:05:15.563Z,100.00
2023-05-12T04:07:43.443Z,100.00
2023-05-12T04:10:11.648Z,100.00
2023-05-12T04:12:39.509Z,100.00
2023-05-12T04:15:09.706Z,100.00
2023-05-12T04:17:37.674Z,100.00
2023-05-12T04:20:08.541Z,100.00
2023-05-12T04:22:36.586Z,100.00
2023-05-12T04:25:04.737Z,100.00
2023-05-12T04:27:32.715Z,100.00
2023-05-12T04:30:03.962Z,100.00
2023-05-12T04:32:36.434Z,100.00
2023-05-12T04:35:05.300Z,100.00
2023-05-12T04:37:34.742Z,100.00
2023-05-12T04:40:02.945Z,100.00
2023-05-12T04:42:31.340Z,100.00
2023-05-12T04:44:59.414Z,100.00
2023-05-12T04:47:27.368Z,100.00
2023-05-12T04:49:55.269Z,100.00
2023-05-12T04:52:24.643Z,100.00
2023-05-12T04:54:54.248Z,100.00
2023-05-12T04:57:23.198Z,100.00
2023-05-12T04:59:51.685Z,100.00
2023-05-12T05:02:19.562Z,100.00
2023-05-12T05:04:47.862Z,100.00
2023-05-12T05:07:16.560Z,100.00
2023-05-12T05:09:44.589Z,100.00
2023-05-12T05:12:13.871Z,100.00
2023-05-12T05:14:41.887Z,100.00
2023-05-12T05:17:11.345Z,100.00
2023-05-12T05:19:53.461Z,100.00
2023-05-12T05:22:23.759Z,100.00
2023-05-12T05:24:51.959Z,100.00
2023-05-12T05:27:21.529Z,100.00
2023-05-12T05:29:50.145Z,100.00
2023-05-12T05:32:18.799Z,100.00
2023-05-12T05:34:46.697Z,100.00
2023-05-12T05:37:14.655Z,100.00
2023-05-12T05:39:42.955Z,100.00
2023-05-12T05:42:10.793Z,100.00
2023-05-12T05:44:41.170Z,100.00
2023-05-12T05:47:09.409Z,100.00
2023-05-12T05:49:37.537Z,100.00
2023-05-12T05:52:06.713Z,98.70
2023-05-12T05:54:34.964Z,97.16
2023-05-12T05:57:03.225Z,98.53
2023-05-12T05:59:32.294Z,98.85
2023-05-12T06:02:01.869Z,97.84
2023-05-12T06:04:30.067Z,98.13
2023-05-12T06:06:59.171Z,98.20
2023-05-12T06:09:28.554Z,98.47
2023-05-12T06:11:56.782Z,100.00
2023-05-12T06:14:24.716Z,100.00
2023-05-12T06:16:52.813Z,98.72
2023-05-12T06:19:22.343Z,98.07
2023-05-12T06:21:51.927Z,97.80
2023-05-12T06:24:19.979Z,97.15
2023-05-12T06:26:48.129Z,97.88
2023-05-12T06:29:16.079Z,97.41
2023-05-12T06:31:44.129Z,96.95
2023-05-12T06:34:12.203Z,95.71
2023-05-12T06:36:44.343Z,94.74
2023-05-12T06:39:14.445Z,93.18
2023-05-12T06:41:44.418Z,93.67
2023-05-12T06:44:21.064Z,91.49
2023-05-12T06:46:53.085Z,93.12
2023-05-12T06:49:21.613Z,90.42
2023-05-12T06:51:51.085Z,90.15
2023-05-12T06:54:18.953Z,90.61
2023-05-12T06:56:47.197Z,90.41
2023-05-12T06:59:15.120Z,89.11
2023-05-12T07:01:43.456Z,87.12
2023-05-12T07:04:11.705Z,87.00
2023-05-12T07:06:39.685Z,85.68
2023-05-12T07:09:08.942Z,85.02
2023-05-12T07:11:36.848Z,83.89
2023-05-12T07:14:04.784Z,82.31
2023-05-12T07:16:32.704Z,78.06
2023-05-12T07:19:00.880Z,76.54
2023-05-12T07:21:29.587Z,72.94
2023-05-12T07:23:57.502Z,73.17
2023-05-12T07:26:28.968Z,73.66
2023-05-12T07:28:57.333Z,71.86
2023-05-12T07:31:25.289Z,72.84
2023-05-12T07:33:53.531Z,72.04
2023-05-12T07:36:22.201Z,65.39
2023-05-12T07:38:50.201Z,64.96
2023-05-12T07:41:18.830Z,60.69
2023-05-12T07:43:48.117Z,60.17
2023-05-12T07:46:16.050Z,62.20
2023-05-12T07:48:44.111Z,59.50
2023-05-12T07:51:12.297Z,59.12
2023-05-12T07:53:40.165Z,57.73
2023-05-12T07:56:08.416Z,58.27
2023-05-12T07:58:36.339Z,54.77
2023-05-12T08:01:06.877Z,55.45
2023-05-12T08:03:36.080Z,56.00
2023-05-12T08:06:05.868Z,55.54
2023-05-12T08:08:33.815Z,57.65
2023-05-12T08:11:02.043Z,54.57
2023-05-12T08:13:29.951Z,54.61
2023-05-12T08:15:58.130Z,54.00
2023-05-12T08:18:27.855Z,54.97
2023-05-12T08:20:56.144Z,52.33
2023-05-12T08:23:25.083Z,54.50
2023-05-12T08:25:52.996Z,54.35
2023-05-12T08:28:20.860Z,53.48
2023-05-12T08:30:48.925Z,52.15
2023-05-12T08:33:16.930Z,51.02
2023-05-12T08:35:46.302Z,51.01
2023-05-12T08:38:14.294Z,52.05
2023-05-12T08:40:48.067Z,49.41
2023-05-12T08:43:26.132Z,49.71
2023-05-12T08:45:57.664Z,49.58
2023-05-12T08:48:28.218Z,47.43
2023-05-12T08:50:58.152Z,47.62
2023-05-12T08:53:27.202Z,48.82
2023-05-12T08:57:09.314Z,48.99
2023-05-12T08:58:48.670Z,48.09
2023-05-12T09:01:18.501Z,49.82
2023-05-12T09:03:46.752Z,48.75
2023-05-12T09:06:16.051Z,48.94
2023-05-12T09:08:43.983Z,50.44
2023-05-12T09:11:13.634Z,52.33
2023-05-12T09:13:50.151Z,49.25
2023-05-12T09:16:20.606Z,50.46
2023-05-12T09:18:51.550Z,49.74
2023-05-12T09:21:21.285Z,49.98
2023-05-12T09:23:56.966Z,49.17
2023-05-12T09:26:26.207Z,48.52
2023-05-12T09:28:56.509Z,49.34
2023-05-12T09:31:27.299Z,48.97
2023-05-12T09:33:55.616Z,48.51
2023-05-12T09:36:26.552Z,47.89
2023-05-12T09:39:04.593Z,48.37
2023-05-12T09:41:32.712Z,48.37
2023-05-12T09:44:01.305Z,48.39
2023-05-12T09:46:29.591Z,47.78
2023-05-12T09:48:58.366Z,47.95
2023-05-12T09:51:29.295Z,47.61
2023-05-12T09:53:58.141Z,45.98
2023-05-12T09:56:28.988Z,46.18
2023-05-12T09:58:58.304Z,44.88
2023-05-12T10:01:27.098Z,45.67
2023-05-12T10:03:56.924Z,46.08
2023-05-12T10:06:29.323Z,46.71
2023-05-12T10:09:06.208Z,47.31
2023-05-12T10:11:34.809Z,46.90
2023-05-12T10:14:02.913Z,47.27
2023-05-12T10:16:31.452Z,46.13
2023-05-12T10:18:59.923Z,47.63
2023-05-12T10:21:29.520Z,47.52
2023-05-12T10:23:58.404Z,46.79
2023-05-12T10:26:26.412Z,46.53
2023-05-12T10:28:54.316Z,45.38
2023-05-12T10:31:23.399Z,44.56
2023-05-12T10:33:58.946Z,45.29
2023-05-12T10:36:27.461Z,43.32
2023-05-12T10:38:57.267Z,44.11
2023-05-12T10:41:31.774Z,46.39
2023-05-12T10:43:59.843Z,45.25
2023-05-12T10:46:28.220Z,44.80
2023-05-12T10:48:57.346Z,43.60
2023-05-12T10:51:28.323Z,43.42
2023-05-12T10:54:00.049Z,45.05
2023-05-12T10:56:30.096Z,45.24
2023-05-12T10:59:09.323Z,43.69
2023-05-12T11:01:38.051Z,43.85
2023-05-12T11:04:15.723Z,43.26
2023-05-12T11:06:46.645Z,43.10
2023-05-12T11:09:17.863Z,44.20
2023-05-12T11:11:47.601Z,42.93
2023-05-12T11:14:15.993Z,41.25
2023-05-12T11:16:44.473Z,41.88
2023-05-12T11:19:12.841Z,42.45
2023-05-12T11:21:41.169Z,41.14
2023-05-12T11:24:13.133Z,39.41
2023-05-12T11:26:43.603Z,41.26
2023-05-12T11:29:11.907Z,42.09
2023-05-12T11:31:39.898Z,41.12
2023-05-12T11:34:13.218Z,40.72
2023-05-12T11:36:43.339Z,39.99
2023-05-12T11:39:15.092Z,40.88
2023-05-12T11:41:44.689Z,41.97
2023-05-12T11:44:17.109Z,40.87
2023-05-12T11:46:56.011Z,42.10
2023-05-12T11:49:23.975Z,42.64
2023-05-12T11:51:53.561Z,42.59
2023-05-12T11:54:22.069Z,42.40
2023-05-12T11:56:52.420Z,43.25
2023-05-12T11:59:27.895Z,42.45
2023-05-12T12:01:55.835Z,42.79
2023-05-12T12:04:34.750Z,43.80
2023-05-12T12:07:02.916Z,44.64
2023-05-12T12:09:35.260Z,43.92
2023-05-12T12:12:05.732Z,44.59
2023-05-12T12:14:33.996Z,44.69
2023-05-12T12:17:02.242Z,44.73
2023-05-12T12:19:30.268Z,44.49
2023-05-12T12:21:59.109Z,44.14
2023-05-12T12:24:27.101Z,44.17
2023-05-12T12:26:54.954Z,43.22
2023-05-12T12:29:26.204Z,43.46
2023-05-12T12:31:54.139Z,41.75
2023-05-12T12:34:22.096Z,43.41
2023-05-12T12:36:49.961Z,45.90
2023-05-12T12:39:19.813Z,46.16
2023-05-12T12:41:49.148Z,46.07
2023-05-12T12:44:17.814Z,47.74
2023-05-12T12:46:47.058Z,42.86
2023-05-12T12:49:14.979Z,43.00
2023-05-12T12:51:46.678Z,43.32
2023-05-12T12:54:15.704Z,42.74
2023-05-12T12:56:44.147Z,43.00
2023-05-12T12:59:12.913Z,42.86
2023-05-12T13:01:40.980Z,43.87
2023-05-12T13:04:10.494Z,44.10
2023-05-12T13:06:38.712Z,43.36
2023-05-12T13:09:06.638Z,44.37
2023-05-12T13:11:34.506Z,44.11
2023-05-12T13:14:04.316Z,43.54
2023-05-12T13:16:32.403Z,44.36
2023-05-12T13:19:00.459Z,44.29
2023-05-12T13:21:29.964Z,44.78
2023-05-12T13:23:57.903Z,44.66
2023-05-12T13:26:25.964Z,44.43
2023-05-12T13:28:54.211Z,45.00
2023-05-12T13:31:22.161Z,43.94
2023-05-12T13:33:50.642Z,44.64
2023-05-12T13:36:18.620Z,44.97
2023-05-12T13:38:48.047Z,45.26
2023-05-12T13:41:16.055Z,44.60
2023-05-12T13:43:44.249Z,44.37
2023-05-12T13:46:12.204Z,43.50
2023-05-12T13:48:40.110Z,42.60
2023-05-12T13:51:08.111Z,43.31
2023-05-12T13:53:40.930Z,42.06
2023-05-12T13:56:17.452Z,42.21
2023-05-12T13:58:45.749Z,41.26
2023-05-12T14:01:13.960Z,42.79
2023-05-12T14:03:42.147Z,42.40
2023-05-12T14:06:15.116Z,42.94
2023-05-12T14:08:43.086Z,43.01
2023-05-12T14:11:11.488Z,42.99
2023-05-12T14:13:40.793Z,44.04
2023-05-12T14:16:12.238Z,43.25
2023-05-12T14:18:42.596Z,43.48
2023-05-12T14:21:11.382Z,43.85
2023-05-12T14:23:39.325Z,44.34
2023-05-12T14:26:07.585Z,44.38
2023-05-12T14:28:35.537Z,44.82
2023-05-12T14:31:04.964Z,44.02
2023-05-12T14:33:33.016Z,45.46
2023-05-12T14:36:07.140Z,40.94
2023-05-12T14:38:36.929Z,43.14
2023-05-12T14:41:05.402Z,44.87
2023-05-12T14:43:33.385Z,45.18
2023-05-12T14:46:02.414Z,46.21
2023-05-12T14:48:32.046Z,46.97
2023-05-12T14:51:00.355Z,47.02
2023-05-12T14:53:28.600Z,46.91
2023-05-12T14:55:56.958Z,46.79
2023-05-12T14:58:25.130Z,47.58
2023-05-12T15:00:53.255Z,47.90
2023-05-12T15:03:21.655Z,47.31
2023-05-12T15:08:22.360Z,45.58
2023-05-12T15:10:50.418Z,45.00
2023-05-12T15:13:20.439Z,45.43
2023-05-12T15:15:48.594Z,44.90
2023-05-12T15:18:16.629Z,44.36
2023-05-12T15:20:44.573Z,43.75
2023-05-12T15:23:13.804Z,44.04
2023-05-12T15:25:41.903Z,44.06
2023-05-12T15:28:10.088Z,44.45
2023-05-12T15:30:38.089Z,44.03
2023-05-12T15:33:06.720Z,43.22
2023-05-12T15:35:35.183Z,42.82
2023-05-12T15:38:03.241Z,42.58
2023-05-12T15:40:32.641Z,42.14
2023-05-12T15:43:00.663Z,41.67
2023-05-12T15:45:28.949Z,42.03
2023-05-12T15:47:57.057Z,41.60
2023-05-12T15:50:25.228Z,43.04
2023-05-12T15:52:53.473Z,43.26
2023-05-12T15:55:21.648Z,43.50
2023-05-12T15:57:51.149Z,42.34
2023-05-12T16:00:20.501Z,42.26
2023-05-12T16:02:49.978Z,42.84
2023-05-12T16:05:18.329Z,44.36
2023-05-12T16:07:48.020Z,44.25
2023-05-12T16:10:16.092Z,42.36
2023-05-12T16:12:44.070Z,41.39
2023-05-12T16:15:14.322Z,40.23
2023-05-12T16:17:42.447Z,41.45
2023-05-12T16:20:11.544Z,42.07
2023-05-12T16:22:39.665Z,42.47
2023-05-12T16:25:08.885Z,41.20
2023-05-12T16:27:36.991Z,42.45
2023-05-12T16:30:05.395Z,43.47
2023-05-12T16:32:34.752Z,45.09
2023-05-12T16:35:02.617Z,45.77
2023-05-12T16:37:30.637Z,45.49
2023-05-12T16:39:58.944Z,46.16
2023-05-12T16:42:27.436Z,48.59
2023-05-12T16:44:55.659Z,49.41
2023-05-12T16:47:23.759Z,47.51
2023-05-12T16:49:54.498Z,48.51
2023-05-12T16:52:22.385Z,48.10
2023-05-12T16:54:50.768Z,48.25
2023-05-12T16:57:19.138Z,48.59
2023-05-12T16:59:48.345Z,48.81
2023-05-12T17:02:16.485Z,49.29
2023-05-12T17:04:44.711Z,51.59
2023-05-12T17:07:13.906Z,49.66
2023-05-12T17:09:42.328Z,50.85
2023-05-12T17:12:10.914Z,50.23
2023-05-12T17:14:38.779Z,50.37
2023-05-12T17:17:06.891Z,52.47
2023-05-12T17:19:35.452Z,52.14
2023-05-12T17:22:03.708Z,51.93
2023-05-12T17:24:33.508Z,52.20
2023-05-12T17:27:01.647Z,51.44
2023-05-12T17:29:29.522Z,52.98
2023-05-12T17:31:57.512Z,53.90
2023-05-12T17:34:25.351Z,54.73
2023-05-12T17:36:53.229Z,58.08
2023-05-12T17:39:21.139Z,58.19
2023-05-12T17:41:50.723Z,55.68
2023-05-12T17:44:18.680Z,55.49
2023-05-12T17:46:46.704Z,55.40
2023-05-12T17:49:16.891Z,54.11
2023-05-12T17:51:44.838Z,56.06
2023-05-12T19:18:29.571Z,70.06
2023-05-12T19:28:52.911Z,73.14
2023-05-12T19:31:20.914Z,74.18
2023-05-12T19:33:48.943Z,74.03
2023-05-12T19:36:16.954Z,73.55
2023-05-12T19:38:44.878Z,73.72
2023-05-12T19:41:12.866Z,72.91
2023-05-12T19:43:40.804Z,73.30
2023-05-12T19:46:10.293Z,73.37
2023-05-12T19:48:38.192Z,74.15
2023-05-12T19:51:06.089Z,75.11
2023-05-12T19:53:34.050Z,75.69
2023-05-12T19:56:01.951Z,74.94
2023-05-12T19:58:30.725Z,75.65
2023-05-12T20:00:58.791Z,76.36
2023-05-12T20:03:28.352Z,77.06
2023-05-12T20:05:56.446Z,77.35
2023-05-12T20:08:24.404Z,77.78
2023-05-12T20:10:52.356Z,77.70
2023-05-12T20:13:20.301Z,78.37
2023-05-12T20:15:48.255Z,78.73
2023-05-12T20:18:16.996Z,79.27
2023-05-12T20:20:46.336Z,79.16
2023-05-12T20:23:14.287Z,80.78
2023-05-12T20:25:42.275Z,80.11
2023-05-12T20:28:11.764Z,80.05
2023-05-12T20:30:39.964Z,80.55
2023-05-12T20:33:08.098Z,80.76
2023-05-12T20:35:36.196Z,81.93
2023-05-12T20:38:05.598Z,82.89
2023-05-12T20:40:34.382Z,83.51
2023-05-12T20:43:02.446Z,84.50
2023-05-12T20:45:30.280Z,85.28
2023-05-12T20:47:58.216Z,85.64
2023-05-12T20:50:27.671Z,87.83
2023-05-12T20:52:55.693Z,88.28
2023-05-12T20:55:26.537Z,88.67
2023-05-12T20:57:54.452Z,87.88
2023-05-12T21:00:22.620Z,88.20
2023-05-12T21:03:06.009Z,88.70
2023-05-12T21:05:37.068Z,87.72
2023-05-12T21:08:05.768Z,88.02
2023-05-12T21:10:39.268Z,87.80
2023-05-12T21:13:07.289Z,87.99
2023-05-12T21:15:35.186Z,89.03
2023-05-12T21:18:03.220Z,89.06
2023-05-12T21:20:31.359Z,91.38
2023-05-12T21:22:59.277Z,93.52
2023-05-12T21:25:27.161Z,95.40
2023-05-12T21:27:56.432Z,95.43
2023-05-12T21:30:24.375Z,95.66
2023-05-12T21:32:52.409Z,95.40
2023-05-12T21:35:20.626Z,97.37
2023-05-12T21:37:49.566Z,96.45
2023-05-12T21:40:17.702Z,96.77
2023-05-12T21:42:45.786Z,97.14
2023-05-12T21:45:15.124Z,99.16
2023-05-12T21:47:43.010Z,98.21
2023-05-12T21:50:11.800Z,97.91
2023-05-12T21:52:40.466Z,97.22
2023-05-12T21:55:12.708Z,98.11
2023-05-12T21:57:40.612Z,99.20
2023-05-12T22:00:12.208Z,99.04
2023-05-12T22:02:43.275Z,99.08
2023-05-12T22:05:11.306Z,99.20
2023-05-12T22:07:39.149Z,100.00
2023-05-12T22:10:07.840Z,100.00
2023-05-12T22:12:35.773Z,100.00
2023-05-12T22:15:03.692Z,100.00
2023-05-12T22:17:31.681Z,100.00
2023-05-12T22:20:01.022Z,100.00
2023-05-12T22:22:29.309Z,100.00
2023-05-12T22:24:57.429Z,100.00
2023-05-12T22:27:25.340Z,100.00
2023-05-12T22:29:53.241Z,100.00
2023-05-12T22:32:21.202Z,100.00
2023-05-12T22:34:49.106Z,100.00
2023-05-12T22:37:19.520Z,100.00
2023-05-12T22:39:47.492Z,100.00
2023-05-12T22:42:15.347Z,100.00
2023-05-12T22:44:43.233Z,100.00
2023-05-12T22:47:11.419Z,100.00
2023-05-12T22:49:39.452Z,100.00
2023-05-12T22:52:07.673Z,100.00
2023-05-12T22:54:37.042Z,100.00
2023-05-12T22:57:05.297Z,100.00
2023-05-12T22:59:33.167Z,100.00
2023-05-12T23:02:01.104Z,100.00
2023-05-12T23:04:29.015Z,100.00
2023-05-12T23:06:56.859Z,100.00
2023-05-12T23:09:24.679Z,100.00
2023-05-12T23:11:53.924Z,100.00
2023-05-12T23:14:21.759Z,100.00
2023-05-12T23:16:49.654Z,100.00
2023-05-12T23:19:17.612Z,100.00
2023-05-12T23:21:45.525Z,100.00
2023-05-12T23:24:13.384Z,100.00
2023-05-12T23:26:41.516Z,100.00
2023-05-12T23:29:11.452Z,100.00
2023-05-12T23:31:39.584Z,100.00
2023-05-12T23:34:07.514Z,100.00
2023-05-12T23:36:35.436Z,100.00
2023-05-12T23:39:04.189Z,100.00
2023-05-12T23:41:33.999Z,100.00
2023-05-12T23:44:02.291Z,100.00
2023-05-12T23:46:31.638Z,100.00
2023-05-12T23:48:59.604Z,100.00
2023-05-12T23:51:28.482Z,100.00
2023-05-12T23:53:56.494Z,100.00
2023-05-12T23:56:24.333Z,100.00
2023-05-12T23:58:52.210Z,100.00
